sensor_id;sensor_type;location;lat;lon;timestamp;temperature;humidity
30186;DHT22;31152;49.190;8.122;2022-08-21T00:01:50;18.60;93.30
30186;DHT22;31152;49.190;8.122;2022-08-21T00:04:19;18.60;93.50
30186;DHT22;31152;49.190;8.122;2022-08-21T00:06:56;18.50;93.70
30186;DHT22;31152;49.190;8.122;2022-08-21T00:09:23;18.50;93.90
30186;DHT22;31152;49.190;8.122;2022-08-21T00:11:50;18.50;94.10
30186;DHT22;31152;49.190;8.122;2022-08-21T00:14:19;18.40;94.30
30186;DHT22;31152;49.190;8.122;2022-08-21T00:16:46;18.50;94.50
30186;DHT22;31152;49.190;8.122;2022-08-21T00:19:12;18.40;94.70
30186;DHT22;31152;49.190;8.122;2022-08-21T00:21:39;18.30;95.00
30186;DHT22;31152;49.190;8.122;2022-08-21T00:24:10;18.30;95.30
30186;DHT22;31152;49.190;8.122;2022-08-21T00:26:39;18.20;95.60
30186;DHT22;31152;49.190;8.122;2022-08-21T00:29:08;18.20;96.00
30186;DHT22;31152;49.190;8.122;2022-08-21T00:31:36;18.10;96.20
30186;DHT22;31152;49.190;8.122;2022-08-21T00:34:05;18.00;96.40
30186;DHT22;31152;49.190;8.122;2022-08-21T00:36:36;18.00;96.70
30186;DHT22;31152;49.190;8.122;2022-08-21T00:39:07;18.00;96.90
30186;DHT22;31152;49.190;8.122;2022-08-21T00:41:36;18.00;97.20
30186;DHT22;31152;49.190;8.122;2022-08-21T00:44:10;17.90;97.30
30186;DHT22;31152;49.190;8.122;2022-08-21T00:46:41;17.90;97.60
30186;DHT22;31152;49.190;8.122;2022-08-21T00:49:11;17.90;97.80
30186;DHT22;31152;49.190;8.122;2022-08-21T00:51:51;17.90;98.10
30186;DHT22;31152;49.190;8.122;2022-08-21T00:54:20;17.80;98.50
30186;DHT22;31152;49.190;8.122;2022-08-21T00:56:51;17.70;98.80
30186;DHT22;31152;49.190;8.122;2022-08-21T00:59:21;17.70;99.10
30186;DHT22;31152;49.190;8.122;2022-08-21T01:01:50;17.60;99.40
30186;DHT22;31152;49.190;8.122;2022-08-21T01:04:18;17.60;99.60
30186;DHT22;31152;49.190;8.122;2022-08-21T01:06:47;17.60;99.80
30186;DHT22;31152;49.190;8.122;2022-08-21T01:09:14;17.50;99.90
30186;DHT22;31152;49.190;8.122;2022-08-21T01:11:42;17.50;99.90
30186;DHT22;31152;49.190;8.122;2022-08-21T01:14:10;17.50;99.90
30186;DHT22;31152;49.190;8.122;2022-08-21T01:16:40;17.50;99.90
30186;DHT22;31152;49.190;8.122;2022-08-21T01:19:08;17.50;99.90
30186;DHT22;31152;49.190;8.122;2022-08-21T01:21:37;17.50;99.90
30186;DHT22;31152;49.190;8.122;2022-08-21T01:24:04;17.40;99.90
30186;DHT22;31152;49.190;8.122;2022-08-21T01:26:33;17.40;99.90
30186;DHT22;31152;49.190;8.122;2022-08-21T01:31:49;17.30;99.90
30186;DHT22;31152;49.190;8.122;2022-08-21T01:34:18;17.30;99.90
30186;DHT22;31152;49.190;8.122;2022-08-21T01:36:45;17.20;99.90
30186;DHT22;31152;49.190;8.122;2022-08-21T01:39:14;17.20;99.90
30186;DHT22;31152;49.190;8.122;2022-08-21T01:41:41;17.20;99.90
30186;DHT22;31152;49.190;8.122;2022-08-21T01:44:11;17.20;99.90
30186;DHT22;31152;49.190;8.122;2022-08-21T01:46:37;17.10;99.90
30186;DHT22;31152;49.190;8.122;2022-08-21T01:49:05;17.10;99.90
30186;DHT22;31152;49.190;8.122;2022-08-21T01:51:32;17.10;99.90
30186;DHT22;31152;49.190;8.122;2022-08-21T01:53:58;17.10;99.90
30186;DHT22;31152;49.190;8.122;2022-08-21T01:56:25;17.00;99.90
30186;DHT22;31152;49.190;8.122;2022-08-21T01:58:54;17.00;99.90
30186;DHT22;31152;49.190;8.122;2022-08-21T02:01:21;16.90;99.90
30186;DHT22;31152;49.190;8.122;2022-08-21T02:03:48;16.90;99.90
30186;DHT22;31152;49.190;8.122;2022-08-21T02:06:15;16.90;99.90
30186;DHT22;31152;49.190;8.122;2022-08-21T02:08:45;16.90;99.90
30186;DHT22;31152;49.190;8.122;2022-08-21T02:11:12;16.90;99.90
30186;DHT22;31152;49.190;8.122;2022-08-21T02:13:40;16.80;99.90
30186;DHT22;31152;49.190;8.122;2022-08-21T02:16:07;16.80;99.90
30186;DHT22;31152;49.190;8.122;2022-08-21T02:18:34;16.80;99.90
30186;DHT22;31152;49.190;8.122;2022-08-21T02:21:04;16.70;99.90
30186;DHT22;31152;49.190;8.122;2022-08-21T02:23:34;16.70;99.90
30186;DHT22;31152;49.190;8.122;2022-08-21T02:26:03;16.70;99.90
30186;DHT22;31152;49.190;8.122;2022-08-21T02:28:31;16.70;99.90
30186;DHT22;31152;49.190;8.122;2022-08-21T02:30:58;16.60;99.90
30186;DHT22;31152;49.190;8.122;2022-08-21T02:33:25;16.60;99.90
30186;DHT22;31152;49.190;8.122;2022-08-21T02:35:57;16.60;99.90
30186;DHT22;31152;49.190;8.122;2022-08-21T02:38:28;16.60;99.90
30186;DHT22;31152;49.190;8.122;2022-08-21T02:40:56;16.60;99.90
30186;DHT22;31152;49.190;8.122;2022-08-21T02:43:25;16.60;99.90
30186;DHT22;31152;49.190;8.122;2022-08-21T02:45:54;16.60;99.90
30186;DHT22;31152;49.190;8.122;2022-08-21T02:48:25;16.50;99.90
30186;DHT22;31152;49.190;8.122;2022-08-21T02:50:58;16.60;99.90
30186;DHT22;31152;49.190;8.122;2022-08-21T02:53:26;16.60;99.90
30186;DHT22;31152;49.190;8.122;2022-08-21T02:55:58;16.50;99.90
30186;DHT22;31152;49.190;8.122;2022-08-21T02:58:33;16.50;99.90
30186;DHT22;31152;49.190;8.122;2022-08-21T03:01:05;16.50;99.90
30186;DHT22;31152;49.190;8.122;2022-08-21T03:03:40;16.40;99.90
30186;DHT22;31152;49.190;8.122;2022-08-21T03:06:11;16.40;99.90
30186;DHT22;31152;49.190;8.122;2022-08-21T03:08:39;16.40;99.90
30186;DHT22;31152;49.190;8.122;2022-08-21T03:11:06;16.40;99.90
30186;DHT22;31152;49.190;8.122;2022-08-21T03:13:35;16.40;99.90
30186;DHT22;31152;49.190;8.122;2022-08-21T03:16:02;16.40;99.90
30186;DHT22;31152;49.190;8.122;2022-08-21T03:18:30;16.40;99.90
30186;DHT22;31152;49.190;8.122;2022-08-21T03:21:01;16.40;99.90
30186;DHT22;31152;49.190;8.122;2022-08-21T03:23:28;16.30;99.90
30186;DHT22;31152;49.190;8.122;2022-08-21T03:25:58;16.30;99.90
30186;DHT22;31152;49.190;8.122;2022-08-21T03:28:27;16.30;99.90
30186;DHT22;31152;49.190;8.122;2022-08-21T03:30:57;16.30;99.90
30186;DHT22;31152;49.190;8.122;2022-08-21T03:33:23;16.30;99.90
30186;DHT22;31152;49.190;8.122;2022-08-21T03:36:00;16.30;99.90
30186;DHT22;31152;49.190;8.122;2022-08-21T03:38:28;16.20;99.90
30186;DHT22;31152;49.190;8.122;2022-08-21T03:40:57;16.30;99.90
30186;DHT22;31152;49.190;8.122;2022-08-21T03:43:27;16.30;99.90
30186;DHT22;31152;49.190;8.122;2022-08-21T03:46:00;16.20;99.90
30186;DHT22;31152;49.190;8.122;2022-08-21T03:48:30;16.20;99.90
30186;DHT22;31152;49.190;8.122;2022-08-21T03:50:57;16.20;99.90
30186;DHT22;31152;49.190;8.122;2022-08-21T03:53:24;16.20;99.90
30186;DHT22;31152;49.190;8.122;2022-08-21T03:55:52;16.20;99.90
30186;DHT22;31152;49.190;8.122;2022-08-21T03:58:22;16.10;99.90
30186;DHT22;31152;49.190;8.122;2022-08-21T04:00:52;16.10;99.90
30186;DHT22;31152;49.190;8.122;2022-08-21T04:03:19;16.10;99.90
30186;DHT22;31152;49.190;8.122;2022-08-21T04:05:46;16.10;99.90
30186;DHT22;31152;49.190;8.122;2022-08-21T04:08:14;16.10;99.90
30186;DHT22;31152;49.190;8.122;2022-08-21T04:10:43;16.10;99.90
30186;DHT22;31152;49.190;8.122;2022-08-21T04:13:11;16.00;99.90
30186;DHT22;31152;49.190;8.122;2022-08-21T04:15:38;16.00;99.90
30186;DHT22;31152;49.190;8.122;2022-08-21T04:18:05;15.90;99.90
30186;DHT22;31152;49.190;8.122;2022-08-21T04:20:32;15.90;99.90
30186;DHT22;31152;49.190;8.122;2022-08-21T04:23:00;15.90;99.90
30186;DHT22;31152;49.190;8.122;2022-08-21T04:25:27;15.90;99.90
30186;DHT22;31152;49.190;8.122;2022-08-21T04:27:55;15.90;99.90
30186;DHT22;31152;49.190;8.122;2022-08-21T04:30:25;15.80;99.90
30186;DHT22;31152;49.190;8.122;2022-08-21T04:32:57;15.80;99.90
30186;DHT22;31152;49.190;8.122;2022-08-21T04:35:28;15.70;99.90
30186;DHT22;31152;49.190;8.122;2022-08-21T04:37:55;15.70;99.90
30186;DHT22;31152;49.190;8.122;2022-08-21T04:40:27;15.70;99.90
30186;DHT22;31152;49.190;8.122;2022-08-21T04:43:03;15.60;99.90
30186;DHT22;31152;49.190;8.122;2022-08-21T04:45:33;15.60;99.90
30186;DHT22;31152;49.190;8.122;2022-08-21T04:48:03;15.60;99.90
30186;DHT22;31152;49.190;8.122;2022-08-21T04:50:50;15.60;99.90
30186;DHT22;31152;49.190;8.122;2022-08-21T04:56:32;15.60;99.90
30186;DHT22;31152;49.190;8.122;2022-08-21T04:59:12;15.50;99.90
30186;DHT22;31152;49.190;8.122;2022-08-21T05:01:40;15.50;99.90
30186;DHT22;31152;49.190;8.122;2022-08-21T05:04:10;15.50;99.90
30186;DHT22;31152;49.190;8.122;2022-08-21T05:06:40;15.50;99.90
30186;DHT22;31152;49.190;8.122;2022-08-21T05:09:14;15.50;99.90
30186;DHT22;31152;49.190;8.122;2022-08-21T05:11:41;15.50;99.90
30186;DHT22;31152;49.190;8.122;2022-08-21T05:14:10;15.50;99.90
30186;DHT22;31152;49.190;8.122;2022-08-21T05:16:38;15.50;99.90
30186;DHT22;31152;49.190;8.122;2022-08-21T05:19:05;15.50;99.90
30186;DHT22;31152;49.190;8.122;2022-08-21T05:21:34;15.50;99.90
30186;DHT22;31152;49.190;8.122;2022-08-21T05:24:01;15.60;99.90
30186;DHT22;31152;49.190;8.122;2022-08-21T05:26:28;15.60;99.90
30186;DHT22;31152;49.190;8.122;2022-08-21T05:28:56;15.50;99.90
30186;DHT22;31152;49.190;8.122;2022-08-21T05:31:23;15.60;99.90
30186;DHT22;31152;49.190;8.122;2022-08-21T05:33:53;15.60;99.90
30186;DHT22;31152;49.190;8.122;2022-08-21T05:36:24;15.60;99.90
30186;DHT22;31152;49.190;8.122;2022-08-21T05:38:52;15.70;99.90
30186;DHT22;31152;49.190;8.122;2022-08-21T05:41:19;15.70;99.90
30186;DHT22;31152;49.190;8.122;2022-08-21T05:43:46;15.80;99.90
30186;DHT22;31152;49.190;8.122;2022-08-21T05:46:13;15.90;99.90
30186;DHT22;31152;49.190;8.122;2022-08-21T05:48:40;16.00;99.90
30186;DHT22;31152;49.190;8.122;2022-08-21T05:51:09;16.10;99.90
30186;DHT22;31152;49.190;8.122;2022-08-21T05:53:37;16.20;99.90
30186;DHT22;31152;49.190;8.122;2022-08-21T05:56:04;16.20;99.90
30186;DHT22;31152;49.190;8.122;2022-08-21T05:58:32;16.20;99.90
30186;DHT22;31152;49.190;8.122;2022-08-21T06:01:00;16.20;99.90
30186;DHT22;31152;49.190;8.122;2022-08-21T06:03:31;16.30;99.90
30186;DHT22;31152;49.190;8.122;2022-08-21T06:05:58;16.40;99.90
30186;DHT22;31152;49.190;8.122;2022-08-21T06:08:26;16.50;99.90
30186;DHT22;31152;49.190;8.122;2022-08-21T06:10:55;16.60;99.90
30186;DHT22;31152;49.190;8.122;2022-08-21T06:13:22;16.70;99.90
30186;DHT22;31152;49.190;8.122;2022-08-21T06:16:00;16.80;99.90
30186;DHT22;31152;49.190;8.122;2022-08-21T06:18:27;17.00;99.90
30186;DHT22;31152;49.190;8.122;2022-08-21T06:20:54;17.10;99.90
30186;DHT22;31152;49.190;8.122;2022-08-21T06:23:25;17.20;99.90
30186;DHT22;31152;49.190;8.122;2022-08-21T06:25:59;17.30;99.90
30186;DHT22;31152;49.190;8.122;2022-08-21T06:28:26;17.30;99.90
30186;DHT22;31152;49.190;8.122;2022-08-21T06:30:53;17.40;99.90
30186;DHT22;31152;49.190;8.122;2022-08-21T06:33:20;17.50;99.90
30186;DHT22;31152;49.190;8.122;2022-08-21T06:35:47;17.50;99.90
30186;DHT22;31152;49.190;8.122;2022-08-21T06:38:15;17.60;99.90
30186;DHT22;31152;49.190;8.122;2022-08-21T06:40:42;17.80;99.90
30186;DHT22;31152;49.190;8.122;2022-08-21T06:43:16;17.80;99.90
30186;DHT22;31152;49.190;8.122;2022-08-21T06:45:43;17.90;99.90
30186;DHT22;31152;49.190;8.122;2022-08-21T06:48:10;18.00;99.90
30186;DHT22;31152;49.190;8.122;2022-08-21T06:50:45;18.20;99.90
30186;DHT22;31152;49.190;8.122;2022-08-21T06:53:16;18.30;99.90
30186;DHT22;31152;49.190;8.122;2022-08-21T06:55:47;18.40;99.90
30186;DHT22;31152;49.190;8.122;2022-08-21T06:58:15;18.50;99.90
30186;DHT22;31152;49.190;8.122;2022-08-21T07:00:47;18.60;99.90
30186;DHT22;31152;49.190;8.122;2022-08-21T07:03:35;18.80;99.90
30186;DHT22;31152;49.190;8.122;2022-08-21T07:06:03;19.00;99.90
30186;DHT22;31152;49.190;8.122;2022-08-21T07:08:30;19.10;99.90
30186;DHT22;31152;49.190;8.122;2022-08-21T07:10:59;19.20;99.70
30186;DHT22;31152;49.190;8.122;2022-08-21T07:13:31;19.30;99.20
30186;DHT22;31152;49.190;8.122;2022-08-21T07:16:01;19.40;98.60
30186;DHT22;31152;49.190;8.122;2022-08-21T07:18:30;19.50;98.30
30186;DHT22;31152;49.190;8.122;2022-08-21T07:21:01;19.70;98.10
30186;DHT22;31152;49.190;8.122;2022-08-21T07:23:37;19.80;98.00
30186;DHT22;31152;49.190;8.122;2022-08-21T07:26:07;19.80;97.80
30186;DHT22;31152;49.190;8.122;2022-08-21T07:28:37;19.90;97.70
30186;DHT22;31152;49.190;8.122;2022-08-21T07:31:04;20.00;97.40
30186;DHT22;31152;49.190;8.122;2022-08-21T07:33:32;20.00;97.40
30186;DHT22;31152;49.190;8.122;2022-08-21T07:36:00;20.10;97.20
30186;DHT22;31152;49.190;8.122;2022-08-21T07:38:27;20.20;97.00
30186;DHT22;31152;49.190;8.122;2022-08-21T07:40:55;20.20;96.70
30186;DHT22;31152;49.190;8.122;2022-08-21T07:43:26;20.30;96.60
30186;DHT22;31152;49.190;8.122;2022-08-21T07:45:56;20.50;96.30
30186;DHT22;31152;49.190;8.122;2022-08-21T07:48:24;20.60;95.80
30186;DHT22;31152;49.190;8.122;2022-08-21T07:50:51;20.70;95.80
30186;DHT22;31152;49.190;8.122;2022-08-21T07:53:20;21.00;94.30
30186;DHT22;31152;49.190;8.122;2022-08-21T07:55:47;21.20;93.70
30186;DHT22;31152;49.190;8.122;2022-08-21T07:58:14;21.30;93.20
30186;DHT22;31152;49.190;8.122;2022-08-21T08:00:41;21.50;93.20
30186;DHT22;31152;49.190;8.122;2022-08-21T08:03:07;21.70;92.80
30186;DHT22;31152;49.190;8.122;2022-08-21T08:05:36;21.80;92.30
30186;DHT22;31152;49.190;8.122;2022-08-21T08:08:03;21.90;92.20
30186;DHT22;31152;49.190;8.122;2022-08-21T08:10:33;21.90;91.90
30186;DHT22;31152;49.190;8.122;2022-08-21T08:13:02;22.00;91.20
30186;DHT22;31152;49.190;8.122;2022-08-21T08:15:29;22.10;90.90
30186;DHT22;31152;49.190;8.122;2022-08-21T08:18:03;22.10;90.70
30186;DHT22;31152;49.190;8.122;2022-08-21T08:20:29;22.20;90.70
30186;DHT22;31152;49.190;8.122;2022-08-21T08:22:56;22.40;90.30
30186;DHT22;31152;49.190;8.122;2022-08-21T08:25:26;22.60;89.60
30186;DHT22;31152;49.190;8.122;2022-08-21T08:28:00;22.80;88.90
30186;DHT22;31152;49.190;8.122;2022-08-21T08:30:26;23.00;87.10
30186;DHT22;31152;49.190;8.122;2022-08-21T08:32:58;23.00;85.60
30186;DHT22;31152;49.190;8.122;2022-08-21T08:35:27;23.00;85.20
30186;DHT22;31152;49.190;8.122;2022-08-21T08:37:56;23.10;86.20
30186;DHT22;31152;49.190;8.122;2022-08-21T08:43:32;23.30;83.40
30186;DHT22;31152;49.190;8.122;2022-08-21T08:46:04;23.40;84.10
30186;DHT22;31152;49.190;8.122;2022-08-21T08:51:15;23.70;83.30
30186;DHT22;31152;49.190;8.122;2022-08-21T08:53:52;23.80;81.30
30186;DHT22;31152;49.190;8.122;2022-08-21T08:56:29;23.90;79.90
30186;DHT22;31152;49.190;8.122;2022-08-21T08:59:08;24.00;79.50
30186;DHT22;31152;49.190;8.122;2022-08-21T09:01:41;23.90;78.50
30186;DHT22;31152;49.190;8.122;2022-08-21T09:04:11;23.90;78.40
30186;DHT22;31152;49.190;8.122;2022-08-21T09:12:17;23.70;78.70
30186;DHT22;31152;49.190;8.122;2022-08-21T09:23:34;24.30;77.80
30186;DHT22;31152;49.190;8.122;2022-08-21T09:26:16;24.50;76.70
30186;DHT22;31152;49.190;8.122;2022-08-21T09:28:44;24.60;74.90
30186;DHT22;31152;49.190;8.122;2022-08-21T09:31:30;24.70;76.00
30186;DHT22;31152;49.190;8.122;2022-08-21T09:34:09;24.90;74.80
30186;DHT22;31152;49.190;8.122;2022-08-21T09:36:40;25.20;74.10
30186;DHT22;31152;49.190;8.122;2022-08-21T09:39:09;25.30;72.80
30186;DHT22;31152;49.190;8.122;2022-08-21T09:41:39;25.30;73.40
30186;DHT22;31152;49.190;8.122;2022-08-21T09:44:08;25.40;73.10
30186;DHT22;31152;49.190;8.122;2022-08-21T09:46:35;25.30;72.20
30186;DHT22;31152;49.190;8.122;2022-08-21T09:49:04;25.30;71.60
30186;DHT22;31152;49.190;8.122;2022-08-21T09:51:51;25.40;73.50
30186;DHT22;31152;49.190;8.122;2022-08-21T09:54:26;25.60;71.60
30186;DHT22;31152;49.190;8.122;2022-08-21T09:59:43;25.50;70.90
30186;DHT22;31152;49.190;8.122;2022-08-21T10:05:02;25.90;70.90
30186;DHT22;31152;49.190;8.122;2022-08-21T10:07:39;26.20;68.70
30186;DHT22;31152;49.190;8.122;2022-08-21T10:10:26;26.30;69.60
30186;DHT22;31152;49.190;8.122;2022-08-21T10:18:30;26.80;66.10
30186;DHT22;31152;49.190;8.122;2022-08-21T10:23:51;26.80;67.00
30186;DHT22;31152;49.190;8.122;2022-08-21T10:32:30;27.20;65.00
30186;DHT22;31152;49.190;8.122;2022-08-21T10:35:28;27.00;64.70
30186;DHT22;31152;49.190;8.122;2022-08-21T10:41:28;27.20;64.70
30186;DHT22;31152;49.190;8.122;2022-08-21T10:44:02;27.30;63.40
30186;DHT22;31152;49.190;8.122;2022-08-21T10:47:08;27.60;64.70
30186;DHT22;31152;49.190;8.122;2022-08-21T10:55:27;27.70;61.40
30186;DHT22;31152;49.190;8.122;2022-08-21T10:58:20;27.50;60.20
30186;DHT22;31152;49.190;8.122;2022-08-21T11:01:00;27.40;61.50
30186;DHT22;31152;49.190;8.122;2022-08-21T11:03:39;27.20;59.90
30186;DHT22;31152;49.190;8.122;2022-08-21T11:06:24;27.10;60.00
30186;DHT22;31152;49.190;8.122;2022-08-21T11:08:55;27.00;59.20
30186;DHT22;31152;49.190;8.122;2022-08-21T11:14:09;27.10;60.80
30186;DHT22;31152;49.190;8.122;2022-08-21T11:17:00;27.30;60.40
30186;DHT22;31152;49.190;8.122;2022-08-21T11:19:45;27.40;60.40
30186;DHT22;31152;49.190;8.122;2022-08-21T11:22:21;27.50;59.50
30186;DHT22;31152;49.190;8.122;2022-08-21T11:30:10;27.40;58.40
30186;DHT22;31152;49.190;8.122;2022-08-21T11:51:23;27.80;58.30
30186;DHT22;31152;49.190;8.122;2022-08-21T11:54:26;27.90;57.50
30186;DHT22;31152;49.190;8.122;2022-08-21T11:57:32;27.70;57.40
30186;DHT22;31152;49.190;8.122;2022-08-21T12:00:33;27.50;57.40
30186;DHT22;31152;49.190;8.122;2022-08-21T12:02:55;27.30;57.60
30186;DHT22;31152;49.190;8.122;2022-08-21T12:05:52;27.30;57.40
30186;DHT22;31152;49.190;8.122;2022-08-21T12:08:34;27.40;57.20
30186;DHT22;31152;49.190;8.122;2022-08-21T12:11:31;27.40;57.10
30186;DHT22;31152;49.190;8.122;2022-08-21T12:14:00;27.50;56.20
30186;DHT22;31152;49.190;8.122;2022-08-21T12:16:44;27.70;57.00
30186;DHT22;31152;49.190;8.122;2022-08-21T12:19:14;28.00;55.70
30186;DHT22;31152;49.190;8.122;2022-08-21T12:21:54;28.10;55.40
30186;DHT22;31152;49.190;8.122;2022-08-21T12:29:46;28.50;54.90
30186;DHT22;31152;49.190;8.122;2022-08-21T12:34:53;29.10;53.70
30186;DHT22;31152;49.190;8.122;2022-08-21T12:37:44;29.10;53.60
30186;DHT22;31152;49.190;8.122;2022-08-21T12:40:23;29.20;52.70
30186;DHT22;31152;49.190;8.122;2022-08-21T12:42:53;29.40;52.10
30186;DHT22;31152;49.190;8.122;2022-08-21T12:45:45;29.50;51.90
30186;DHT22;31152;49.190;8.122;2022-08-21T12:48:20;29.80;51.40
30186;DHT22;31152;49.190;8.122;2022-08-21T12:50:52;29.90;51.30
30186;DHT22;31152;49.190;8.122;2022-08-21T12:53:39;29.80;50.20
30186;DHT22;31152;49.190;8.122;2022-08-21T12:56:19;29.50;51.10
30186;DHT22;31152;49.190;8.122;2022-08-21T12:58:56;29.40;50.90
30186;DHT22;31152;49.190;8.122;2022-08-21T13:03:55;29.30;50.90
30186;DHT22;31152;49.190;8.122;2022-08-21T13:06:38;29.20;50.30
30186;DHT22;31152;49.190;8.122;2022-08-21T13:09:09;29.10;50.40
30186;DHT22;31152;49.190;8.122;2022-08-21T13:11:41;29.00;51.00
30186;DHT22;31152;49.190;8.122;2022-08-21T13:14:29;28.90;50.40
30186;DHT22;31152;49.190;8.122;2022-08-21T13:16:58;29.10;51.40
30186;DHT22;31152;49.190;8.122;2022-08-21T13:19:26;29.30;50.10
30186;DHT22;31152;49.190;8.122;2022-08-21T13:21:56;29.30;49.30
30186;DHT22;31152;49.190;8.122;2022-08-21T13:24:28;29.40;50.20
30186;DHT22;31152;49.190;8.122;2022-08-21T13:27:38;29.50;50.10
30186;DHT22;31152;49.190;8.122;2022-08-21T13:32:39;29.50;49.10
30186;DHT22;31152;49.190;8.122;2022-08-21T13:35:28;29.40;48.70
30186;DHT22;31152;49.190;8.122;2022-08-21T13:37:58;29.40;49.00
30186;DHT22;31152;49.190;8.122;2022-08-21T13:40:31;29.40;49.10
30186;DHT22;31152;49.190;8.122;2022-08-21T13:43:00;29.50;49.20
30186;DHT22;31152;49.190;8.122;2022-08-21T13:45:31;29.80;48.60
30186;DHT22;31152;49.190;8.122;2022-08-21T13:48:01;29.90;48.40
30186;DHT22;31152;49.190;8.122;2022-08-21T13:50:41;30.00;49.20
30186;DHT22;31152;49.190;8.122;2022-08-21T13:53:22;30.20;47.90
30186;DHT22;31152;49.190;8.122;2022-08-21T13:55:52;30.30;47.30
30186;DHT22;31152;49.190;8.122;2022-08-21T13:58:30;30.50;47.00
30186;DHT22;31152;49.190;8.122;2022-08-21T14:00:59;30.40;46.30
30186;DHT22;31152;49.190;8.122;2022-08-21T14:03:42;30.50;47.20
30186;DHT22;31152;49.190;8.122;2022-08-21T14:06:28;30.60;46.50
30186;DHT22;31152;49.190;8.122;2022-08-21T14:09:11;30.70;46.40
30186;DHT22;31152;49.190;8.122;2022-08-21T14:11:41;30.80;46.70
30186;DHT22;31152;49.190;8.122;2022-08-21T14:14:28;30.80;45.90
30186;DHT22;31152;49.190;8.122;2022-08-21T14:17:03;30.60;46.00
30186;DHT22;31152;49.190;8.122;2022-08-21T14:19:50;30.20;46.10
30186;DHT22;31152;49.190;8.122;2022-08-21T14:22:37;30.00;48.20
30186;DHT22;31152;49.190;8.122;2022-08-21T14:25:31;29.90;46.90
30186;DHT22;31152;49.190;8.122;2022-08-21T14:28:31;29.70;46.50
30186;DHT22;31152;49.190;8.122;2022-08-21T14:31:18;29.50;47.00
30186;DHT22;31152;49.190;8.122;2022-08-21T14:33:48;29.30;47.00
30186;DHT22;31152;49.190;8.122;2022-08-21T14:36:15;29.20;47.20
30186;DHT22;31152;49.190;8.122;2022-08-21T14:38:42;29.20;47.40
30186;DHT22;31152;49.190;8.122;2022-08-21T14:41:21;29.10;47.30
30186;DHT22;31152;49.190;8.122;2022-08-21T14:43:51;28.90;47.30
30186;DHT22;31152;49.190;8.122;2022-08-21T14:46:32;29.10;47.80
30186;DHT22;31152;49.190;8.122;2022-08-21T14:49:02;29.10;47.60
30186;DHT22;31152;49.190;8.122;2022-08-21T14:51:29;29.30;48.20
30186;DHT22;31152;49.190;8.122;2022-08-21T14:53:56;29.30;47.20
30186;DHT22;31152;49.190;8.122;2022-08-21T14:56:23;29.20;47.20
30186;DHT22;31152;49.190;8.122;2022-08-21T14:59:02;29.30;47.70
30186;DHT22;31152;49.190;8.122;2022-08-21T15:01:34;29.40;47.50
30186;DHT22;31152;49.190;8.122;2022-08-21T15:04:02;29.40;47.10
30186;DHT22;31152;49.190;8.122;2022-08-21T15:06:29;29.50;47.50
30186;DHT22;31152;49.190;8.122;2022-08-21T15:08:58;29.50;47.50
30186;DHT22;31152;49.190;8.122;2022-08-21T15:11:27;29.50;47.20
30186;DHT22;31152;49.190;8.122;2022-08-21T15:14:11;29.40;47.30
30186;DHT22;31152;49.190;8.122;2022-08-21T15:16:44;29.30;47.80
30186;DHT22;31152;49.190;8.122;2022-08-21T15:19:16;29.40;47.60
30186;DHT22;31152;49.190;8.122;2022-08-21T15:21:49;29.60;47.30
30186;DHT22;31152;49.190;8.122;2022-08-21T15:24:16;30.20;46.90
30186;DHT22;31152;49.190;8.122;2022-08-21T15:26:45;30.80;46.10
30186;DHT22;31152;49.190;8.122;2022-08-21T15:29:15;31.50;44.60
30186;DHT22;31152;49.190;8.122;2022-08-21T15:31:58;32.10;43.80
30186;DHT22;31152;49.190;8.122;2022-08-21T15:34:32;32.50;43.40
30186;DHT22;31152;49.190;8.122;2022-08-21T15:37:09;32.90;42.10
30186;DHT22;31152;49.190;8.122;2022-08-21T15:39:39;32.80;41.60
30186;DHT22;31152;49.190;8.122;2022-08-21T15:42:08;32.80;41.30
30186;DHT22;31152;49.190;8.122;2022-08-21T15:44:41;33.00;41.50
30186;DHT22;31152;49.190;8.122;2022-08-21T15:47:15;33.20;41.90
30186;DHT22;31152;49.190;8.122;2022-08-21T15:49:45;33.60;41.70
30186;DHT22;31152;49.190;8.122;2022-08-21T15:52:17;34.00;40.10
30186;DHT22;31152;49.190;8.122;2022-08-21T15:54:44;33.90;40.10
30186;DHT22;31152;49.190;8.122;2022-08-21T15:57:13;33.40;39.30
30186;DHT22;31152;49.190;8.122;2022-08-21T15:59:45;32.60;40.60
30186;DHT22;31152;49.190;8.122;2022-08-21T16:02:22;32.20;41.00
30186;DHT22;31152;49.190;8.122;2022-08-21T16:04:51;31.80;41.70
30186;DHT22;31152;49.190;8.122;2022-08-21T16:07:20;31.80;42.20
30186;DHT22;31152;49.190;8.122;2022-08-21T16:09:49;31.80;41.80
30186;DHT22;31152;49.190;8.122;2022-08-21T16:12:21;31.80;42.30
30186;DHT22;31152;49.190;8.122;2022-08-21T16:14:50;31.90;42.40
30186;DHT22;31152;49.190;8.122;2022-08-21T16:17:17;32.00;42.80
30186;DHT22;31152;49.190;8.122;2022-08-21T16:19:44;32.20;42.00
30186;DHT22;31152;49.190;8.122;2022-08-21T16:22:11;32.20;42.20
30186;DHT22;31152;49.190;8.122;2022-08-21T16:24:43;32.10;42.30
30186;DHT22;31152;49.190;8.122;2022-08-21T16:27:12;32.00;42.50
30186;DHT22;31152;49.190;8.122;2022-08-21T16:29:40;31.80;42.60
30186;DHT22;31152;49.190;8.122;2022-08-21T16:32:07;31.70;42.10
30186;DHT22;31152;49.190;8.122;2022-08-21T16:34:40;31.50;42.40
30186;DHT22;31152;49.190;8.122;2022-08-21T16:37:08;31.60;42.40
30186;DHT22;31152;49.190;8.122;2022-08-21T16:39:37;31.80;42.40
30186;DHT22;31152;49.190;8.122;2022-08-21T16:42:04;32.00;43.00
30186;DHT22;31152;49.190;8.122;2022-08-21T16:44:32;32.10;42.20
30186;DHT22;31152;49.190;8.122;2022-08-21T16:47:01;32.10;43.10
30186;DHT22;31152;49.190;8.122;2022-08-21T16:49:27;32.10;42.50
30186;DHT22;31152;49.190;8.122;2022-08-21T16:51:57;32.20;42.10
30186;DHT22;31152;49.190;8.122;2022-08-21T16:54:24;32.10;41.80
30186;DHT22;31152;49.190;8.122;2022-08-21T16:56:53;32.10;41.90
30186;DHT22;31152;49.190;8.122;2022-08-21T16:59:26;32.00;41.70
30186;DHT22;31152;49.190;8.122;2022-08-21T17:01:57;31.80;42.20
30186;DHT22;31152;49.190;8.122;2022-08-21T17:04:30;31.60;42.40
30186;DHT22;31152;49.190;8.122;2022-08-21T17:07:12;31.30;42.60
30186;DHT22;31152;49.190;8.122;2022-08-21T17:09:41;30.90;43.00
30186;DHT22;31152;49.190;8.122;2022-08-21T17:12:11;30.60;43.80
30186;DHT22;31152;49.190;8.122;2022-08-21T17:14:43;30.20;43.60
30186;DHT22;31152;49.190;8.122;2022-08-21T17:17:16;30.00;44.10
30186;DHT22;31152;49.190;8.122;2022-08-21T17:19:43;29.70;44.40
30186;DHT22;31152;49.190;8.122;2022-08-21T17:22:12;29.40;45.00
30186;DHT22;31152;49.190;8.122;2022-08-21T17:24:39;29.20;45.30
30186;DHT22;31152;49.190;8.122;2022-08-21T17:27:06;29.00;45.40
30186;DHT22;31152;49.190;8.122;2022-08-21T17:29:36;28.90;45.80
30186;DHT22;31152;49.190;8.122;2022-08-21T17:32:07;28.70;46.50
30186;DHT22;31152;49.190;8.122;2022-08-21T17:34:35;28.60;48.50